createdAt,value
2023-08-31T00:09:30.735Z,12.1
2023-08-31T00:19:33.371Z,12.2
2023-08-31T00:29:36.011Z,12.1
2023-08-31T00:39:38.583Z,12.1
2023-08-31T00:49:41.270Z,12.1
2023-08-31T00:59:43.873Z,12.1
2023-08-31T01:09:46.061Z,12.1
2023-08-31T01:19:48.151Z,12.1
2023-08-31T01:29:50.429Z,12.1
2023-08-31T01:39:52.574Z,12
2023-08-31T01:49:55.157Z,12
2023-08-31T01:59:57.273Z,11.8
2023-08-31T02:09:59.589Z,11.7
2023-08-31T02:30:04.071Z,11.5
2023-08-31T02:40:06.728Z,11.3
2023-08-31T02:50:08.843Z,11.3
2023-08-31T03:00:10.830Z,11.1
2023-08-31T03:20:15.356Z,11.1
2023-08-31T03:30:17.757Z,11
2023-08-31T03:40:19.690Z,11
2023-08-31T03:50:22.256Z,11
2023-08-31T04:00:24.537Z,11
2023-08-31T04:10:26.467Z,10.9
2023-08-31T04:20:28.498Z,11
2023-08-31T04:30:30.894Z,11
2023-08-31T04:40:32.937Z,11.1
2023-08-31T04:50:34.697Z,11.1
2023-08-31T05:00:37.376Z,11.1
2023-08-31T05:10:39.440Z,11.2
2023-08-31T05:20:41.224Z,11.2
2023-08-31T05:30:43.221Z,11.2
2023-08-31T05:40:45.286Z,11.3
2023-08-31T05:50:47.551Z,11.3
2023-08-31T06:00:49.997Z,11.4
2023-08-31T06:10:52.689Z,11.5
2023-08-31T06:20:54.631Z,11.9
2023-08-31T06:30:56.530Z,11.9
2023-08-31T06:51:00.601Z,11.9
2023-08-31T07:01:03.097Z,12.1
2023-08-31T07:11:05.102Z,12.6
2023-08-31T07:21:06.921Z,12.9
2023-08-31T07:31:09.518Z,13.3
2023-08-31T07:51:14.140Z,13.1
2023-08-31T08:01:16.881Z,13.1
2023-08-31T08:11:18.939Z,13.4
2023-08-31T08:21:20.822Z,13.6
2023-08-31T08:31:23.407Z,13.9
2023-08-31T08:41:24.770Z,14.3
2023-08-31T08:51:26.928Z,14.6
2023-08-31T09:01:29.225Z,14.8
2023-08-31T09:11:31.789Z,14.9
2023-08-31T09:21:33.473Z,15.3
2023-08-31T09:31:35.345Z,15.9
2023-08-31T09:41:37.045Z,16.1
2023-08-31T09:51:39.669Z,16.2
2023-08-31T10:01:41.593Z,16
2023-08-31T10:11:43.577Z,16
2023-08-31T10:21:46.291Z,15.1
2023-08-31T10:31:48.839Z,14.2
2023-08-31T10:41:50.844Z,14.3
2023-08-31T10:51:52.617Z,14.4
2023-08-31T11:01:54.679Z,14.3
2023-08-31T11:11:56.968Z,14.1
2023-08-31T11:21:59.678Z,14.4
2023-08-31T11:32:02.289Z,15.1
2023-08-31T11:42:04.011Z,15.2
2023-08-31T11:52:06.161Z,15.8
2023-08-31T12:12:10.098Z,17.1
2023-08-31T12:22:12.677Z,18
2023-08-31T12:32:14.470Z,18.3
2023-08-31T12:42:22.795Z,18.7
2023-08-31T12:52:19.043Z,19
2023-08-31T13:02:21.664Z,18.8
2023-08-31T13:12:23.943Z,18.4
2023-08-31T13:22:25.954Z,18.7
2023-08-31T13:32:27.655Z,18.6
2023-08-31T13:42:31.142Z,19.2
2023-08-31T13:52:31.522Z,18
2023-08-31T14:02:33.289Z,17.2
2023-08-31T14:12:35.709Z,17.1
2023-08-31T14:22:37.705Z,17.3
2023-08-31T14:32:40.310Z,17.2
2023-08-31T14:42:42.920Z,17
2023-08-31T14:52:45.102Z,16
2023-08-31T15:02:47.037Z,15.4
2023-08-31T15:12:49.173Z,15.2
2023-08-31T15:22:51.262Z,15.1
2023-08-31T15:32:53.501Z,15.2
2023-08-31T15:42:55.216Z,15.4
2023-08-31T15:52:57.022Z,15.5
2023-08-31T16:02:59.112Z,15.5
2023-08-31T16:13:01.550Z,15.5
2023-08-31T16:23:04.008Z,15.5
2023-08-31T16:33:06.347Z,15.2
2023-08-31T16:43:08.920Z,15.2
2023-08-31T16:53:11.456Z,15.3
2023-08-31T17:03:13.242Z,15.4
2023-08-31T17:13:15.556Z,15.5
2023-08-31T17:33:20.737Z,15.4
2023-08-31T17:43:23.034Z,15.2
2023-08-31T17:53:25.235Z,15.1
2023-08-31T18:03:27.610Z,15
2023-08-31T18:13:29.247Z,14.9
2023-08-31T18:23:31.237Z,14.9
2023-08-31T18:33:33.149Z,14.9
2023-08-31T18:43:35.504Z,14.8
2023-08-31T18:53:38.146Z,14.7
2023-08-31T19:03:40.165Z,14.7
2023-08-31T19:13:42.307Z,14.6
2023-08-31T19:23:44.840Z,14.5
2023-08-31T19:33:46.900Z,14.4
2023-08-31T19:43:49.025Z,14.2
2023-08-31T19:53:50.921Z,14.1
2023-08-31T20:03:53.544Z,13.9
2023-08-31T20:13:55.798Z,13.8
2023-08-31T20:23:57.762Z,13.6
2023-08-31T20:33:59.738Z,13.4
2023-08-31T20:44:02.335Z,13.5
2023-08-31T20:54:04.451Z,13.2
2023-08-31T21:04:07.051Z,13.1
2023-08-31T21:14:09.433Z,12.9
2023-08-31T21:16:47.854Z,12.9
2023-08-31T21:24:21.161Z,13
2023-08-31T21:34:23.368Z,13
2023-08-31T21:44:25.578Z,13
2023-08-31T21:54:27.780Z,12.9
2023-08-31T22:04:29.516Z,12.8
2023-08-31T22:14:31.292Z,12.8
2023-08-31T22:24:33.334Z,12.8
2023-08-31T22:44:37.881Z,12.8
2023-08-31T22:54:40.041Z,12.8
2023-08-31T23:24:46.417Z,12.5
2023-08-31T23:34:48.929Z,12.4
2023-08-31T23:54:53.298Z,12.2
